Time;durP1;ratioP1;P1;durP2;ratioP2;P2;SDS_P1;SDS_P2;PMS_P1;PMS_P2;Temp;Humidity;BMP_temperature;BMP_pressure;BME280_temperature;BME280_humidity;BME280_pressure;Samples;Min_cycle;Max_cycle;Signal;HPM_P1;HPM_P2
2022/05/22 00:01:24;;;;;;;3.00;1.60;;;;;;;12.44;57.77;96534.30;107268;1274;40851;-72
2022/05/22 00:03:54;;;;;;;3.90;1.50;;;;;;;12.42;57.81;96536.80;107314;1273;38149;-72
2022/05/22 00:06:25;;;;;;;1.80;1.10;;;;;;;12.40;58.00;96537.95;107322;1273;47751;-72
2022/05/22 00:08:57;;;;;;;2.10;1.00;;;;;;;12.42;58.11;96540.41;107294;1274;29624;-72
2022/05/22 00:11:28;;;;;;;2.30;1.50;;;;;;;12.43;58.10;96537.91;107349;1273;41645;-72
2022/05/22 00:13:59;;;;;;;3.20;1.40;;;;;;;12.42;58.17;96538.28;107397;1273;32062;-71
2022/05/22 00:16:40;;;;;;;4.20;1.90;;;;;;;12.39;58.32;96538.98;107346;1273;42431;-72
2022/05/22 00:19:15;;;;;;;3.10;1.40;;;;;;;12.36;58.28;96540.40;107308;1274;33283;-71
2022/05/22 00:21:47;;;;;;;2.80;1.40;;;;;;;12.37;58.37;96533.94;107330;1274;45277;-71
2022/05/22 00:24:20;;;;;;;4.60;1.50;;;;;;;12.39;58.68;96528.83;107398;1273;37052;-72
2022/05/22 00:26:52;;;;;;;4.70;1.70;;;;;;;12.40;59.07;96530.15;107317;1274;31197;-72
2022/05/22 00:29:23;;;;;;;4.50;1.80;;;;;;;12.40;59.21;96528.50;107399;1273;35202;-72
2022/05/22 00:31:54;;;;;;;3.00;1.50;;;;;;;12.41;58.88;96526.40;107301;1273;47015;-72
2022/05/22 00:34:26;;;;;;;4.00;1.80;;;;;;;12.44;59.16;96526.66;107004;1274;55150;-72
2022/05/22 00:36:57;;;;;;;2.60;1.70;;;;;;;12.45;59.09;96530.47;107283;1273;51959;-71
2022/05/22 00:39:28;;;;;;;4.30;1.50;;;;;;;12.42;59.05;96523.23;107387;1273;30243;-71
2022/05/22 00:42:03;;;;;;;2.70;1.40;;;;;;;12.35;59.34;96527.75;107393;1273;28958;-72
2022/05/22 00:44:34;;;;;;;4.50;1.80;;;;;;;12.29;59.34;96527.55;107362;1273;54521;-72
2022/05/22 00:47:05;;;;;;;3.70;1.50;;;;;;;12.23;59.54;96528.63;107250;1274;48591;-72
2022/05/22 00:49:41;;;;;;;3.90;1.50;;;;;;;12.22;59.71;96526.80;107382;1273;33606;-71
2022/05/22 00:52:18;;;;;;;6.00;2.20;;;;;;;12.19;59.74;96526.36;107419;1273;40849;-72
2022/05/22 00:54:52;;;;;;;3.40;1.50;;;;;;;12.16;59.82;96528.92;107396;1273;36876;-72
2022/05/22 00:57:34;;;;;;;4.40;1.60;;;;;;;12.13;60.21;96529.07;107388;1273;34382;-72
2022/05/22 01:00:12;;;;;;;4.10;1.80;;;;;;;12.07;60.33;96531.81;107384;1273;39482;-71
2022/05/22 01:05:33;;;;;;;3.70;1.50;;;;;;;12.02;61.38;96530.04;107279;1273;48902;-71
2022/05/22 01:08:04;;;;;;;3.40;1.20;;;;;;;12.02;61.74;96530.58;107247;1273;50032;-72
2022/05/22 01:10:47;;;;;;;2.90;1.70;;;;;;;12.00;61.90;96527.89;107294;1274;33003;-71
2022/05/22 01:13:27;;;;;;;3.80;1.60;;;;;;;12.00;62.15;96531.55;107292;1273;41715;-71
2022/05/22 01:15:59;;;;;;;3.30;2.10;;;;;;;11.99;62.40;96524.51;107297;1272;50397;-72
2022/05/22 01:55:17;;;;;;;6.20;1.70;;;;;;;12.06;64.21;96507.55;107360;1273;32412;-71
2022/05/22 01:58:06;;;;;;;3.90;2.10;;;;;;;12.05;64.00;96509.11;107331;1273;50622;-72
2022/05/22 02:00:38;;;;;;;5.30;1.90;;;;;;;12.04;64.19;96508.98;107217;1273;42474;-71
2022/05/22 02:03:09;;;;;;;4.40;1.90;;;;;;;12.03;64.21;96501.08;107307;1273;48996;-71
2022/05/22 02:05:43;;;;;;;4.30;1.90;;;;;;;12.02;64.15;96505.01;107439;1273;38851;-71
2022/05/22 02:08:22;;;;;;;5.10;1.80;;;;;;;12.02;64.12;96503.16;107468;1273;31291;-71
2022/05/22 02:10:56;;;;;;;2.80;1.90;;;;;;;12.02;64.11;96499.13;107371;1273;34394;-72
2022/05/22 02:13:30;;;;;;;5.90;1.80;;;;;;;12.01;64.58;96494.94;107409;1271;34775;-72
2022/05/22 02:16:01;;;;;;;6.00;2.30;;;;;;;11.98;64.71;96497.42;107350;1273;30113;-72
2022/05/22 02:18:32;;;;;;;4.40;1.80;;;;;;;11.96;64.76;96498.63;107310;1275;30016;-72
2022/05/22 02:21:04;;;;;;;4.80;2.00;;;;;;;11.94;64.85;96495.35;107397;1273;35441;-72
2022/05/22 02:23:37;;;;;;;4.10;1.80;;;;;;;11.91;64.80;96499.23;107303;1274;27921;-71
2022/05/22 02:26:12;;;;;;;4.10;2.20;;;;;;;11.87;64.88;96502.74;107403;1273;39790;-71
2022/05/22 02:28:43;;;;;;;3.20;1.90;;;;;;;11.81;64.91;96497.09;107305;1273;51053;-72
2022/05/22 02:31:15;;;;;;;2.60;1.70;;;;;;;11.76;65.16;96495.45;107385;1273;41993;-71
2022/05/22 02:33:45;;;;;;;3.50;2.30;;;;;;;11.71;65.07;96496.25;107300;1275;31517;-71
2022/05/22 02:36:17;;;;;;;5.10;1.80;;;;;;;11.71;65.11;96493.87;107428;1273;27738;-72
2022/05/22 02:38:48;;;;;;;6.60;2.30;;;;;;;11.73;65.09;96495.37;107212;1273;43496;-71
2022/05/22 02:41:20;;;;;;;4.70;2.00;;;;;;;11.76;65.03;96495.23;107267;1275;31664;-72
2022/05/22 02:43:51;;;;;;;6.00;2.30;;;;;;;11.75;65.12;96494.64;107246;1276;33776;-72
2022/05/22 02:46:24;;;;;;;4.70;2.10;;;;;;;11.71;65.26;96490.10;107307;1276;31961;-71
2022/05/22 02:48:55;;;;;;;4.00;2.40;;;;;;;11.68;65.41;96483.06;107262;1276;31376;-71
2022/05/22 02:51:28;;;;;;;4.00;2.10;;;;;;;11.63;65.56;96483.20;107407;1273;43036;-71
2022/05/22 02:53:59;;;;;;;2.80;2.10;;;;;;;11.55;65.64;96483.69;107363;1273;36823;-71
2022/05/22 02:56:30;;;;;;;3.20;1.80;;;;;;;11.48;65.91;96486.11;107136;1274;47891;-71
2022/05/22 02:59:01;;;;;;;4.50;2.20;;;;;;;11.40;66.20;96490.79;107378;1273;37496;-71
2022/05/22 03:38:04;;;;;;;4.50;2.90;;;;;;;11.41;69.89;96487.96;107295;1273;37497;-70
2022/05/22 03:40:37;;;;;;;4.70;2.60;;;;;;;11.47;69.86;96488.24;107239;1273;31949;-70
2022/05/22 03:43:08;;;;;;;5.80;2.90;;;;;;;11.54;69.58;96482.05;107370;1273;35747;-70
2022/05/22 03:45:42;;;;;;;6.10;2.80;;;;;;;11.63;69.62;96482.92;107392;1273;29513;-70
2022/05/22 03:48:14;;;;;;;5.60;3.20;;;;;;;11.68;69.42;96479.71;107386;1273;39739;-69
2022/05/22 03:50:47;;;;;;;7.20;3.20;;;;;;;11.67;69.57;96478.62;107435;1273;42733;-70
2022/05/22 03:53:18;;;;;;;5.40;2.80;;;;;;;11.72;69.49;96476.76;107238;1274;43372;-70
2022/05/22 03:55:49;;;;;;;5.90;3.30;;;;;;;11.79;69.06;96469.16;107363;1273;44937;-70
2022/05/22 03:58:20;;;;;;;6.30;3.30;;;;;;;11.84;68.90;96473.14;107234;1274;53056;-70
2022/05/22 04:00:51;;;;;;;5.20;3.30;;;;;;;11.96;68.81;96477.01;107233;1273;44243;-69
2022/05/22 04:03:22;;;;;;;9.80;3.50;;;;;;;12.01;68.57;96472.95;107299;1273;43741;-70
2022/05/22 04:05:53;;;;;;;5.30;3.30;;;;;;;12.05;68.45;96470.95;107262;1273;40096;-70
2022/05/22 04:08:24;;;;;;;8.80;3.40;;;;;;;12.11;68.52;96471.23;107269;1273;32000;-69
2022/05/22 04:10:55;;;;;;;6.30;3.70;;;;;;;12.11;68.46;96468.89;107295;1273;28000;-70
2022/05/22 04:13:26;;;;;;;8.40;3.50;;;;;;;12.08;68.41;96471.02;107313;1273;36495;-70
2022/05/22 04:15:57;;;;;;;6.00;3.60;;;;;;;12.05;68.44;96469.77;107248;1273;26974;-70
2022/05/22 04:18:28;;;;;;;5.80;3.40;;;;;;;11.96;68.50;96470.73;107161;1274;29625;-70
2022/05/22 04:20:59;;;;;;;5.10;3.00;;;;;;;11.95;68.55;96475.52;107296;1273;31114;-70
2022/05/22 04:26:19;;;;;;;6.00;2.90;;;;;;;12.20;68.61;96476.77;107103;1274;44988;-70
2022/05/22 04:28:51;;;;;;;5.70;2.60;;;;;;;12.31;68.09;96469.94;107279;1273;29702;-69
2022/05/22 04:31:22;;;;;;;5.90;3.00;;;;;;;12.36;67.79;96469.57;107229;1273;38802;-70
2022/05/22 04:33:53;;;;;;;5.30;2.20;;;;;;;12.42;67.47;96471.06;107130;1274;35131;-70
2022/05/22 04:36:24;;;;;;;2.80;2.00;;;;;;;12.57;66.88;96470.55;107253;1273;46898;-69
2022/05/22 04:38:55;;;;;;;4.90;2.10;;;;;;;12.63;66.58;96467.88;107174;1274;41169;-70
2022/05/22 04:41:26;;;;;;;4.20;2.00;;;;;;;12.74;66.52;96471.39;107248;1273;31921;-69
2022/05/22 04:43:58;;;;;;;3.70;2.40;;;;;;;12.79;66.17;96466.88;107207;1273;41186;-69
2022/05/22 04:46:29;;;;;;;4.00;2.20;;;;;;;12.84;65.95;96468.52;107135;1276;35138;-69
2022/05/22 04:49:01;;;;;;;4.40;2.50;;;;;;;12.94;65.95;96466.21;107154;1274;33388;-70
2022/05/22 04:51:32;;;;;;;4.90;2.20;;;;;;;13.18;65.36;96462.30;107270;1273;31386;-70
2022/05/22 04:54:03;;;;;;;5.40;2.10;;;;;;;13.35;64.99;96466.38;107263;1273;30843;-69
2022/05/22 04:56:34;;;;;;;4.60;1.90;;;;;;;13.57;64.30;96468.23;107143;1274;33617;-69
2022/05/22 04:59:05;;;;;;;5.00;2.20;;;;;;;13.75;63.54;96464.48;107289;1273;29862;-70
2022/05/22 05:01:39;;;;;;;5.00;2.20;;;;;;;14.75;62.34;96465.81;107083;1274;42697;-70
2022/05/22 05:04:11;;;;;;;4.90;1.90;;;;;;;15.68;59.19;96469.35;107050;1276;42742;-69
2022/05/22 05:06:43;;;;;;;3.40;1.70;;;;;;;16.85;57.89;96465.81;107107;1274;48502;-70
2022/05/22 05:09:14;;;;;;;2.30;1.30;;;;;;;17.51;55.00;96461.54;107259;1273;50377;-70
2022/05/22 05:11:45;;;;;;;3.50;1.40;;;;;;;17.13;52.42;96462.80;107266;1273;45298;-70
2022/05/22 05:14:19;;;;;;;4.90;1.80;;;;;;;17.31;51.40;96469.04;107173;1274;37973;-70
2022/05/22 05:16:50;;;;;;;3.70;1.40;;;;;;;18.74;49.71;96465.69;107127;1275;31407;-71
2022/05/22 05:19:21;;;;;;;4.00;1.40;;;;;;;19.54;47.21;96461.56;107273;1273;33762;-70
2022/05/22 05:21:56;;;;;;;3.30;1.30;;;;;;;20.49;46.99;96464.52;107029;1275;40273;-70
2022/05/22 05:24:28;;;;;;;5.40;1.40;;;;;;;21.41;42.44;96460.09;107276;1273;36853;-70
2022/05/22 05:26:59;;;;;;;4.30;1.30;;;;;;;21.54;41.06;96460.00;107171;1274;38311;-70
2022/05/22 05:29:30;;;;;;;3.90;1.20;;;;;;;21.68;39.77;96459.83;107143;1274;38478;-70
2022/05/22 05:32:02;;;;;;;6.80;1.00;;;;;;;21.13;38.63;96465.27;107253;1274;39980;-70
2022/05/22 05:34:34;;;;;;;2.70;2.00;;;;;;;20.18;40.48;96468.92;107204;1273;44412;-70
2022/05/22 05:37:05;;;;;;;2.60;0.90;;;;;;;20.53;39.85;96473.50;107226;1274;38761;-70
2022/05/22 05:39:37;;;;;;;6.20;2.80;;;;;;;20.66;39.46;96463.92;107152;1277;36455;-70
2022/05/22 05:42:09;;;;;;;3.70;1.20;;;;;;;20.05;39.86;96468.34;107260;1274;33599;-70
2022/05/22 05:44:43;;;;;;;2.30;1.70;;;;;;;19.73;41.35;96469.50;107145;1274;36275;-70
2022/05/22 05:47:15;;;;;;;3.60;0.80;;;;;;;19.92;41.78;96466.06;107223;1274;45401;-70
2022/05/22 05:49:48;;;;;;;3.30;1.20;;;;;;;18.80;41.77;96469.80;107186;1274;40419;-70
2022/05/22 05:52:19;;;;;;;3.00;1.10;;;;;;;18.75;42.31;96466.29;107237;1274;41042;-71
2022/05/22 05:54:51;;;;;;;3.80;1.30;;;;;;;19.16;41.76;96470.98;107253;1274;33494;-70
2022/05/22 05:57:22;;;;;;;3.90;1.20;;;;;;;19.53;42.17;96468.00;107140;1274;32133;-71
2022/05/22 05:59:57;;;;;;;3.50;1.60;;;;;;;19.16;41.91;96471.46;107205;1274;42995;-70
2022/05/22 06:02:31;;;;;;;3.30;1.40;;;;;;;19.92;40.74;96471.71;107355;1274;31611;-71
2022/05/22 06:05:02;;;;;;;8.00;1.80;;;;;;;21.08;39.50;96468.08;107253;1274;34316;-71
2022/05/22 06:07:34;;;;;;;5.30;1.90;;;;;;;22.03;37.51;96455.02;107394;1274;34004;-70
2022/05/22 06:10:06;;;;;;;2.90;1.10;;;;;;;21.95;36.97;96465.80;107382;1274;33476;-71
2022/05/22 06:12:37;;;;;;;3.80;1.30;;;;;;;21.50;36.91;96470.95;107351;1272;82350;-71
2022/05/22 06:15:10;;;;;;;2.00;1.00;;;;;;;21.37;37.58;96461.77;107231;1274;60279;-71
2022/05/22 06:17:46;;;;;;;3.00;1.40;;;;;;;22.43;37.05;96460.25;107393;1274;54821;-71
2022/05/22 06:20:19;;;;;;;4.30;1.20;;;;;;;21.96;36.58;96461.42;107506;1274;36701;-71
2022/05/22 06:22:53;;;;;;;3.70;1.30;;;;;;;22.63;35.58;96458.38;107184;1274;46025;-72
2022/05/22 06:25:25;;;;;;;2.80;1.30;;;;;;;22.93;35.37;96453.02;107216;1274;50194;-70
2022/05/22 06:27:57;;;;;;;2.90;1.20;;;;;;;23.06;35.15;96451.45;107371;1274;30106;-70
2022/05/22 06:30:29;;;;;;;3.10;1.50;;;;;;;22.96;35.48;96451.83;107351;1274;30708;-71
2022/05/22 06:33:01;;;;;;;2.60;1.20;;;;;;;23.55;34.48;96449.65;107228;1274;36437;-70
2022/05/22 06:35:33;;;;;;;3.20;1.20;;;;;;;22.11;35.81;96452.02;107246;1274;41889;-70
2022/05/22 06:38:04;;;;;;;3.40;1.40;;;;;;;21.77;35.93;96454.76;107198;1274;32766;-70
2022/05/22 06:40:39;;;;;;;2.50;1.00;;;;;;;22.02;37.11;96453.34;107183;1274;32856;-71
2022/05/22 06:43:11;;;;;;;2.50;1.20;;;;;;;21.81;35.87;96446.17;107153;1274;41082;-70
2022/05/22 06:45:42;;;;;;;4.60;1.30;;;;;;;20.96;37.88;96447.86;107363;1274;32042;-71
2022/05/22 06:48:14;;;;;;;4.30;1.30;;;;;;;21.22;37.46;96444.41;107263;1274;29053;-71
2022/05/22 06:50:45;;;;;;;3.80;1.40;;;;;;;20.55;38.21;96442.55;107333;1274;37298;-70
2022/05/22 06:53:16;;;;;;;4.10;1.20;;;;;;;21.29;38.10;96435.30;107331;1274;39287;-71
2022/05/22 06:55:48;;;;;;;2.90;1.10;;;;;;;19.84;38.79;96439.81;107328;1274;35855;-71
2022/05/22 06:58:19;;;;;;;5.00;1.60;;;;;;;18.13;41.23;96444.52;107293;1274;39586;-70
2022/05/22 07:00:54;;;;;;;2.90;1.30;;;;;;;18.03;43.29;96441.17;107256;1274;33389;-71
2022/05/22 07:03:25;;;;;;;4.30;1.70;;;;;;;19.80;40.34;96442.04;107182;1274;35273;-70
2022/05/22 07:05:57;;;;;;;2.90;1.20;;;;;;;20.05;40.90;96440.23;107168;1274;39249;-70
2022/05/22 07:08:28;;;;;;;3.50;1.20;;;;;;;20.72;38.59;96434.27;107209;1274;38217;-70
2022/05/22 07:13:47;;;;;;;2.60;1.40;;;;;;;16.71;44.73;96441.77;107208;1274;32096;-70
2022/05/22 07:16:20;;;;;;;3.50;1.60;;;;;;;15.53;47.05;96440.19;107112;1274;33623;-70
2022/05/22 07:18:52;;;;;;;3.70;1.20;;;;;;;14.82;48.89;96451.68;107301;1274;29623;-69
2022/05/22 07:21:24;;;;;;;5.20;2.00;;;;;;;14.65;50.41;96445.36;107098;1274;37065;-70
2022/05/22 07:23:55;;;;;;;3.20;1.50;;;;;;;16.97;48.10;96439.64;107194;1274;40333;-71
2022/05/22 07:26:27;;;;;;;3.30;1.30;;;;;;;18.52;43.84;96431.21;107223;1274;36543;-71
2022/05/22 07:29:01;;;;;;;2.60;1.40;;;;;;;18.86;41.67;96436.89;107253;1274;31401;-70
2022/05/22 07:31:34;;;;;;;2.80;1.10;;;;;;;19.15;40.95;96432.33;107242;1274;51055;-71
2022/05/22 07:34:05;;;;;;;3.60;2.80;;;;;;;17.98;41.89;96446.25;107245;1274;47828;-70
2022/05/22 07:36:36;;;;;;;3.90;1.50;;;;;;;19.14;42.47;96447.29;107146;1274;32343;-71
2022/05/22 07:39:08;;;;;;;4.70;1.20;;;;;;;21.90;41.21;96438.09;107247;1273;41397;-71
2022/05/22 07:41:39;;;;;;;5.00;1.50;;;;;;;24.56;37.66;96437.02;107310;1274;51200;-72
2022/05/22 07:44:11;;;;;;;4.50;1.30;;;;;;;25.19;33.54;96429.86;107304;1274;32656;-71
2022/05/22 07:46:42;;;;;;;3.10;1.50;;;;;;;22.83;34.40;96435.02;107296;1274;37762;-71
2022/05/22 07:50:16;;;;;;;4.60;1.40;;;;;;;20.99;36.62;96437.23;107344;1274;37696;-71
2022/05/22 07:52:10;;;;;;;4.70;1.60;;;;;;;20.28;38.87;96442.41;107021;1274;404421;-70
2022/05/22 07:54:42;;;;;;;4.50;1.60;;;;;;;21.87;37.55;96437.40;107339;1274;31285;-70
2022/05/22 07:57:14;;;;;;;5.70;1.70;;;;;;;20.28;37.66;96436.86;107388;1273;47378;-71
2022/05/22 07:59:46;;;;;;;4.30;1.60;;;;;;;18.42;40.30;96435.02;107427;1274;25506;-70
2022/05/22 08:02:17;;;;;;;4.00;1.70;;;;;;;17.25;43.20;96438.55;107497;1274;30896;-70
2022/05/22 08:04:48;;;;;;;4.00;1.80;;;;;;;18.26;43.40;96439.03;107412;1274;32449;-71
2022/05/22 08:07:19;;;;;;;4.60;1.80;;;;;;;18.83;42.62;96437.85;107230;1274;40679;-71
2022/05/22 08:09:51;;;;;;;4.20;1.50;;;;;;;18.18;42.68;96434.98;107175;1274;38689;-71
2022/05/22 08:12:23;;;;;;;3.10;1.40;;;;;;;16.98;44.12;96441.88;107248;1274;74632;-71
2022/05/22 08:14:54;;;;;;;3.90;1.30;;;;;;;16.85;45.54;96441.42;107296;1273;46116;-71
2022/05/22 08:17:25;;;;;;;5.10;1.30;;;;;;;17.98;44.16;96435.34;107327;1273;32815;-70
2022/05/22 08:19:57;;;;;;;6.10;1.60;;;;;;;19.14;41.10;96434.30;107290;1273;34407;-70
2022/05/22 08:22:28;;;;;;;4.00;1.20;;;;;;;18.02;41.70;96442.31;107371;1273;34019;-70
2022/05/22 08:25:01;;;;;;;4.90;1.30;;;;;;;17.04;42.55;96446.02;107353;1273;47349;-70
2022/05/22 08:27:35;;;;;;;4.10;1.60;;;;;;;16.97;43.98;96438.69;107482;1273;31616;-71
2022/05/22 08:30:08;;;;;;;3.00;1.70;;;;;;;18.45;43.24;96437.60;107441;1273;42686;-71
2022/05/22 08:32:41;;;;;;;4.40;1.80;;;;;;;20.38;39.46;96428.92;107497;1273;37762;-71
2022/05/22 08:35:19;;;;;;;5.30;1.20;;;;;;;21.55;38.47;96434.32;107349;1273;50221;-74
2022/05/22 08:37:50;;;;;;;3.00;0.90;;;;;;;21.99;36.13;96429.41;105271;1273;2705442;-75
2022/05/22 08:40:24;;;;;;;2.70;1.80;;;;;;;20.43;36.03;96429.88;107276;1273;37831;-75
2022/05/22 08:43:04;;;;;;;4.40;1.20;;;;;;;20.05;36.67;96425.88;107241;1274;68620;-74
2022/05/22 08:45:41;;;;;;;5.80;1.80;;;;;;;18.43;38.28;96418.48;107447;1273;42724;-73
2022/05/22 08:48:28;;;;;;;4.20;1.70;;;;;;;16.92;41.07;96426.34;107587;1273;29403;-74
2022/05/22 08:51:00;;;;;;;5.00;1.50;;;;;;;16.10;43.17;96430.14;107459;1273;34657;-74
2022/05/22 08:53:38;;;;;;;4.40;1.60;;;;;;;15.66;44.63;96432.00;107446;1273;33358;-74
2022/05/22 08:59:06;;;;;;;3.70;1.70;;;;;;;15.10;47.92;96430.51;107260;1275;37584;-74
2022/05/22 09:01:44;;;;;;;4.30;1.90;;;;;;;15.06;49.56;96430.41;107241;1274;52693;-74
2022/05/22 09:04:26;;;;;;;4.40;1.40;;;;;;;14.90;50.26;96432.94;107317;1274;31240;-73
2022/05/22 09:07:09;;;;;;;2.90;1.60;;;;;;;14.80;51.30;96431.55;107353;1273;66078;-74
2022/05/22 09:09:42;;;;;;;6.10;2.10;;;;;;;15.42;50.60;96428.98;107240;1274;43171;-74
2022/05/22 09:12:50;;;;;;;3.60;1.50;;;;;;;15.87;49.70;96426.34;107351;1273;40359;-74
2022/05/22 09:15:28;;;;;;;4.80;1.80;;;;;;;15.93;48.21;96409.03;107230;1274;50992;-74
2022/05/22 09:18:05;;;;;;;4.90;1.70;;;;;;;15.80;48.52;96421.10;107313;1273;46276;-74
2022/05/22 09:20:46;;;;;;;4.50;1.70;;;;;;;15.83;48.07;96417.70;107265;1274;33806;-74
2022/05/22 09:23:36;;;;;;;4.60;2.00;;;;;;;15.48;48.20;96419.51;107419;1273;41671;-74
2022/05/22 09:26:10;;;;;;;8.10;1.70;;;;;;;15.51;48.65;96420.69;107261;1274;35605;-73
2022/05/22 09:28:53;;;;;;;5.20;1.80;;;;;;;15.72;47.94;96413.45;107225;1274;42307;-74
2022/05/22 09:31:32;;;;;;;4.90;1.80;;;;;;;15.98;47.89;96411.06;107262;1273;47585;-74
2022/05/22 09:34:16;;;;;;;3.80;1.30;;;;;;;16.00;47.62;96410.02;107333;1273;39029;-74
2022/05/22 09:37:02;;;;;;;5.40;1.70;;;;;;;15.87;48.04;96413.13;107398;1273;49357;-73
2022/05/22 09:40:12;;;;;;;4.40;1.20;;;;;;;15.60;48.55;96414.46;107235;1274;55219;-73
2022/05/22 09:42:58;;;;;;;3.80;1.30;;;;;;;15.34;48.50;96405.01;107484;1273;33859;-74
2022/05/22 09:45:44;;;;;;;1.80;1.30;;;;;;;15.35;49.03;96409.08;107377;1273;35864;-74
2022/05/22 09:48:45;;;;;;;5.30;1.60;;;;;;;15.21;49.23;96404.23;107395;1273;54784;-73
2022/05/22 09:51:23;;;;;;;3.60;1.50;;;;;;;15.10;49.82;96413.65;107423;1273;34012;-74
2022/05/22 09:54:09;;;;;;;3.00;1.30;;;;;;;15.06;50.19;96408.79;107397;1273;36492;-74
2022/05/22 09:56:53;;;;;;;3.30;1.40;;;;;;;15.31;49.98;96407.98;107383;1273;47935;-74
2022/05/22 09:59:54;;;;;;;6.60;1.70;;;;;;;15.54;50.64;96409.69;107328;1273;40321;-74
2022/05/22 10:02:32;;;;;;;6.60;2.30;;;;;;;15.56;50.62;96399.02;107177;1275;75454;-74
2022/05/22 10:05:20;;;;;;;5.40;2.00;;;;;;;15.53;50.07;96404.60;107279;1276;34247;-75
2022/05/22 10:07:57;;;;;;;3.70;1.10;;;;;;;15.52;49.36;96396.78;107255;1276;58124;-74
2022/05/22 10:10:37;;;;;;;3.80;1.50;;;;;;;15.45;48.74;96383.64;107212;1275;66867;-74
2022/05/22 10:13:12;;;;;;;;;;;;;;;15.34;48.75;96390.02;107249;1276;46618;-74
2022/05/22 10:15:56;;;;;;;2.60;0.90;;;;;;;15.73;48.45;96382.29;107395;1274;38779;-74
2022/05/22 10:18:39;;;;;;;4.40;1.50;;;;;;;15.99;46.53;96375.90;107316;1274;51449;-74
2022/05/22 10:21:20;;;;;;;3.70;1.40;;;;;;;16.18;47.91;96377.67;107233;1274;64087;-74
2022/05/22 10:24:06;;;;;;;3.20;1.20;;;;;;;16.74;47.58;96381.09;107286;1274;36974;-75
2022/05/22 10:26:55;;;;;;;3.30;1.10;;;;;;;16.80;45.45;96379.44;107321;1274;37331;-74
2022/05/22 10:29:33;;;;;;;4.60;1.30;;;;;;;16.45;45.16;96380.58;107309;1274;36736;-74
2022/05/22 10:32:10;;;;;;;4.50;1.70;;;;;;;16.13;45.74;96378.42;107233;1274;59511;-74
2022/05/22 10:34:48;;;;;;;4.40;1.30;;;;;;;16.07;46.33;96376.63;107266;1274;60575;-74
2022/05/22 10:37:26;;;;;;;2.10;1.10;;;;;;;15.91;46.04;96373.42;107267;1274;51669;-73
2022/05/22 10:39:58;;;;;;;4.90;1.00;;;;;;;15.90;46.92;96378.42;107351;1274;33298;-74
2022/05/22 10:42:49;;;;;;;4.60;1.30;;;;;;;16.04;46.97;96380.55;107261;1274;48304;-74
2022/05/22 10:45:32;;;;;;;3.20;1.40;;;;;;;15.86;47.10;96387.91;107250;1274;64004;-74
2022/05/22 10:48:12;;;;;;;7.10;1.60;;;;;;;15.50;47.78;96395.31;107306;1274;39249;-74
2022/05/22 10:50:55;;;;;;;2.50;1.00;;;;;;;15.17;48.97;96408.95;107339;1274;49735;-73
2022/05/22 10:53:32;;;;;;;4.50;1.90;;;;;;;14.91;49.34;96403.61;107300;1274;30485;-73
2022/05/22 10:56:08;;;;;;;2.90;1.40;;;;;;;14.95;50.11;96407.02;107262;1276;41144;-74
2022/05/22 10:58:51;;;;;;;1.70;1.10;;;;;;;15.56;50.95;96402.96;106351;1274;1284347;-74
2022/05/22 11:01:24;;;;;;;3.60;1.60;;;;;;;15.75;49.60;96401.76;107282;1276;35808;-74
2022/05/22 11:04:07;;;;;;;3.20;1.30;;;;;;;15.60;49.16;96405.06;107246;1273;54517;-74
2022/05/22 11:06:40;;;;;;;4.80;1.90;;;;;;;15.45;50.06;96403.81;107416;1274;33107;-74
2022/05/22 11:09:14;;;;;;;2.70;1.50;;;;;;;15.64;50.51;96398.23;107274;1274;33157;-74
2022/05/22 11:11:45;;;;;;;5.70;1.40;;;;;;;16.08;50.74;96389.79;107358;1274;39441;-74
2022/05/22 11:14:24;;;;;;;4.20;1.50;;;;;;;16.41;49.53;96387.27;107319;1273;61985;-74
2022/05/22 11:16:55;;;;;;;3.40;1.50;;;;;;;16.39;49.41;96384.89;107329;1274;45741;-74
2022/05/22 11:19:28;;;;;;;3.40;1.30;;;;;;;16.32;49.02;96381.04;107253;1276;37537;-74
2022/05/22 11:22:12;;;;;;;4.50;1.70;;;;;;;16.11;48.71;96383.98;107272;1274;36303;-74
2022/05/22 11:24:55;;;;;;;7.00;1.70;;;;;;;15.85;48.88;96386.93;107272;1274;41239;-74
2022/05/22 11:27:43;;;;;;;4.90;1.70;;;;;;;15.62;48.86;96378.69;107316;1274;45106;-73
2022/05/22 11:30:23;;;;;;;4.60;1.30;;;;;;;15.68;49.01;96377.33;107308;1274;44615;-73
2022/05/22 11:33:10;;;;;;;3.10;1.10;;;;;;;15.99;48.56;96378.45;107261;1274;46923;-74
2022/05/22 11:35:48;;;;;;;2.40;0.80;;;;;;;15.88;47.91;96384.30;107340;1274;32484;-74
2022/05/22 11:38:35;;;;;;;3.40;1.10;;;;;;;15.62;48.16;96387.46;107268;1274;47880;-74
2022/05/22 11:41:20;;;;;;;1.80;0.90;;;;;;;15.40;48.78;96386.09;107335;1274;32345;-73
2022/05/22 11:44:19;;;;;;;5.20;1.50;;;;;;;15.48;49.42;96377.50;107265;1274;47793;-74
2022/05/22 11:47:02;;;;;;;4.70;1.50;;;;;;;15.50;49.92;96386.31;107257;1274;38319;-74
2022/05/22 11:49:42;;;;;;;2.40;1.10;;;;;;;15.54;49.13;96385.94;107297;1274;41730;-74
2022/05/22 11:55:26;;;;;;;3.20;1.40;;;;;;;15.34;49.28;96384.38;107307;1274;33043;-73
2022/05/22 11:58:12;;;;;;;3.70;1.70;;;;;;;15.52;49.83;96384.08;107309;1273;48676;-74
2022/05/22 12:00:50;;;;;;;3.30;1.20;;;;;;;16.06;49.09;96387.88;107318;1274;33223;-73
2022/05/22 12:03:48;;;;;;;5.60;1.10;;;;;;;16.23;46.52;96385.09;107302;1274;33886;-73
2022/05/22 12:06:37;;;;;;;3.10;1.10;;;;;;;16.16;46.25;96389.00;107211;1274;47414;-75
2022/05/22 12:09:19;;;;;;;3.40;1.10;;;;;;;16.02;46.40;96381.38;107331;1274;47089;-73
2022/05/22 12:12:02;;;;;;;3.40;1.70;;;;;;;15.75;47.15;96387.95;107306;1274;51836;-74
2022/05/22 12:14:53;;;;;;;2.40;1.00;;;;;;;15.65;48.00;96386.14;107274;1274;59917;-73
2022/05/22 12:17:35;;;;;;;4.60;1.10;;;;;;;15.40;48.61;96391.86;107334;1274;34301;-74
2022/05/22 12:20:21;;;;;;;5.00;1.50;;;;;;;15.07;49.20;96396.10;107281;1273;40384;-73
2022/05/22 12:23:10;;;;;;;4.40;1.50;;;;;;;14.92;49.92;96399.63;107231;1274;47515;-74
2022/05/22 12:25:45;;;;;;;3.60;1.40;;;;;;;14.95;50.39;96404.15;107293;1274;32175;-74
2022/05/22 12:28:41;;;;;;;4.30;1.40;;;;;;;15.06;50.37;96397.42;107407;1274;37504;-74
2022/05/22 12:31:18;;;;;;;4.70;1.70;;;;;;;15.40;50.65;96397.94;107245;1276;32464;-74
2022/05/22 12:33:52;;;;;;;3.20;1.40;;;;;;;15.99;50.63;96393.39;107318;1274;36285;-75
2022/05/22 12:36:26;;;;;;;3.40;1.50;;;;;;;16.09;49.13;96389.63;107294;1274;47327;-74
2022/05/22 12:39:02;;;;;;;3.70;1.30;;;;;;;16.11;49.06;96392.84;107271;1274;33706;-74
2022/05/22 12:41:50;;;;;;;4.90;1.40;;;;;;;16.09;48.35;96390.07;107340;1274;34752;-74
2022/05/22 12:44:28;;;;;;;5.10;1.60;;;;;;;15.94;48.66;96401.99;107272;1274;43436;-74
2022/05/22 12:46:59;;;;;;;3.10;1.20;;;;;;;15.99;48.84;96399.67;107261;1274;36677;-74
2022/05/22 12:49:32;;;;;;;3.50;1.20;;;;;;;15.90;48.13;96397.55;107345;1274;35200;-73
2022/05/22 12:52:15;;;;;;;4.30;1.00;;;;;;;15.76;47.56;96406.48;107323;1274;34173;-73
2022/05/22 12:54:58;;;;;;;2.80;1.00;;;;;;;15.56;48.07;96407.34;107367;1274;43371;-74
2022/05/22 12:57:30;;;;;;;3.60;1.40;;;;;;;15.46;48.15;96405.73;107331;1273;36835;-74
2022/05/22 13:00:14;;;;;;;6.40;1.20;;;;;;;15.34;47.78;96401.61;107287;1274;39039;-73
2022/05/22 13:02:48;;;;;;;3.50;0.80;;;;;;;15.33;48.28;96402.89;107297;1274;44012;-74
2022/05/22 13:05:28;;;;;;;2.30;1.00;;;;;;;15.49;47.10;96398.06;107238;1274;51294;-75
2022/05/22 13:08:00;;;;;;;3.60;0.90;;;;;;;15.62;46.72;96391.84;107172;1276;74188;-73
2022/05/22 13:10:43;;;;;;;1.60;1.00;;;;;;;15.70;46.70;96388.34;107293;1273;33531;-73
2022/05/22 13:13:28;;;;;;;2.40;0.90;;;;;;;15.80;45.45;96382.41;107346;1273;46053;-74
2022/05/22 13:16:04;;;;;;;3.60;1.00;;;;;;;15.64;45.45;96387.15;107268;1274;43345;-73
2022/05/22 13:18:48;;;;;;;2.00;1.00;;;;;;;15.58;45.97;96383.28;107354;1274;35589;-74
2022/05/22 13:21:31;;;;;;;3.10;1.00;;;;;;;15.51;45.95;96392.28;107226;1273;39835;-75
2022/05/22 13:24:21;;;;;;;1.80;0.80;;;;;;;15.58;46.53;96387.52;107321;1274;30551;-74
2022/05/22 13:26:57;;;;;;;;;;;;;;;15.76;45.83;96383.26;107291;1274;42913;-74
2022/05/22 13:29:36;;;;;;;2.70;1.20;;;;;;;15.88;45.47;96372.30;107308;1274;43546;-74
2022/05/22 13:32:17;;;;;;;3.20;1.10;;;;;;;15.86;45.37;96369.04;107282;1274;42061;-74
2022/05/22 13:34:52;;;;;;;2.20;0.80;;;;;;;15.77;45.26;96365.29;107250;1274;55108;-74